sensor_id;sensor_type;location;lat;lon;timestamp;temperature;humidity
20366;DHT22;10341;49.894;8.822;2022-11-30T00:03:12;7.30;99.90
20366;DHT22;10341;49.894;8.822;2022-11-30T00:08:31;7.30;99.90
20366;DHT22;10341;49.894;8.822;2022-11-30T00:13:51;7.30;99.90
20366;DHT22;10341;49.894;8.822;2022-11-30T00:19:11;7.30;99.90
20366;DHT22;10341;49.894;8.822;2022-11-30T00:24:30;7.20;99.90
20366;DHT22;10341;49.894;8.822;2022-11-30T00:29:50;7.30;99.90
20366;DHT22;10341;49.894;8.822;2022-11-30T00:35:09;7.30;99.90
20366;DHT22;10341;49.894;8.822;2022-11-30T00:40:28;7.30;99.90
20366;DHT22;10341;49.894;8.822;2022-11-30T00:45:48;7.30;99.90
20366;DHT22;10341;49.894;8.822;2022-11-30T00:51:09;7.30;99.90
20366;DHT22;10341;49.894;8.822;2022-11-30T00:56:28;7.30;99.90
20366;DHT22;10341;49.894;8.822;2022-11-30T01:01:47;7.30;99.90
20366;DHT22;10341;49.894;8.822;2022-11-30T01:07:06;7.30;99.90
20366;DHT22;10341;49.894;8.822;2022-11-30T01:12:26;7.30;99.90
20366;DHT22;10341;49.894;8.822;2022-11-30T01:17:45;7.30;99.90
20366;DHT22;10341;49.894;8.822;2022-11-30T01:23:05;7.40;99.90
20366;DHT22;10341;49.894;8.822;2022-11-30T01:28:24;7.40;99.90
20366;DHT22;10341;49.894;8.822;2022-11-30T01:33:51;7.40;99.90
20366;DHT22;10341;49.894;8.822;2022-11-30T01:39:11;7.40;99.90
20366;DHT22;10341;49.894;8.822;2022-11-30T01:50:02;7.40;99.90
20366;DHT22;10341;49.894;8.822;2022-11-30T01:55:30;7.40;99.90
20366;DHT22;10341;49.894;8.822;2022-11-30T02:00:50;7.40;99.90
20366;DHT22;10341;49.894;8.822;2022-11-30T02:06:10;7.40;99.90
20366;DHT22;10341;49.894;8.822;2022-11-30T02:11:30;7.40;99.90
20366;DHT22;10341;49.894;8.822;2022-11-30T02:39:21;7.40;99.90
20366;DHT22;10341;49.894;8.822;2022-11-30T02:44:46;7.40;99.90
20366;DHT22;10341;49.894;8.822;2022-11-30T02:55:27;7.40;99.90
20366;DHT22;10341;49.894;8.822;2022-11-30T03:00:47;7.40;99.90
20366;DHT22;10341;49.894;8.822;2022-11-30T03:06:06;7.40;99.90
20366;DHT22;10341;49.894;8.822;2022-11-30T03:11:26;7.30;99.90
20366;DHT22;10341;49.894;8.822;2022-11-30T03:16:46;7.30;99.90
20366;DHT22;10341;49.894;8.822;2022-11-30T03:22:05;7.30;99.90
20366;DHT22;10341;49.894;8.822;2022-11-30T03:27:24;7.30;99.90
20366;DHT22;10341;49.894;8.822;2022-11-30T03:32:44;7.30;99.90
20366;DHT22;10341;49.894;8.822;2022-11-30T03:38:03;7.30;99.90
20366;DHT22;10341;49.894;8.822;2022-11-30T03:43:22;7.30;99.90
20366;DHT22;10341;49.894;8.822;2022-11-30T03:48:41;7.30;99.90
20366;DHT22;10341;49.894;8.822;2022-11-30T03:54:01;7.40;99.90
20366;DHT22;10341;49.894;8.822;2022-11-30T03:59:21;7.40;99.90
20366;DHT22;10341;49.894;8.822;2022-11-30T04:04:40;7.40;99.90
20366;DHT22;10341;49.894;8.822;2022-11-30T04:10:00;7.40;99.90
20366;DHT22;10341;49.894;8.822;2022-11-30T04:15:20;7.40;99.90
20366;DHT22;10341;49.894;8.822;2022-11-30T04:20:40;7.40;99.90
20366;DHT22;10341;49.894;8.822;2022-11-30T04:26:01;7.50;99.90
20366;DHT22;10341;49.894;8.822;2022-11-30T04:31:21;7.40;99.90
20366;DHT22;10341;49.894;8.822;2022-11-30T04:36:40;7.50;99.90
20366;DHT22;10341;49.894;8.822;2022-11-30T04:42:00;7.50;99.90
20366;DHT22;10341;49.894;8.822;2022-11-30T04:47:19;7.50;99.90
20366;DHT22;10341;49.894;8.822;2022-11-30T04:52:39;7.50;99.90
20366;DHT22;10341;49.894;8.822;2022-11-30T04:57:58;7.40;99.90
20366;DHT22;10341;49.894;8.822;2022-11-30T05:03:18;7.50;99.90
20366;DHT22;10341;49.894;8.822;2022-11-30T05:08:37;7.50;99.90
20366;DHT22;10341;49.894;8.822;2022-11-30T05:13:55;7.50;99.90
20366;DHT22;10341;49.894;8.822;2022-11-30T05:19:15;7.50;99.90
20366;DHT22;10341;49.894;8.822;2022-11-30T05:24:34;7.50;99.90
20366;DHT22;10341;49.894;8.822;2022-11-30T05:29:54;7.50;99.90
20366;DHT22;10341;49.894;8.822;2022-11-30T05:35:14;7.50;99.90
20366;DHT22;10341;49.894;8.822;2022-11-30T05:40:33;7.50;99.90
20366;DHT22;10341;49.894;8.822;2022-11-30T05:46:00;7.50;99.90
20366;DHT22;10341;49.894;8.822;2022-11-30T05:51:20;7.50;99.90
20366;DHT22;10341;49.894;8.822;2022-11-30T05:56:39;7.50;99.90
20366;DHT22;10341;49.894;8.822;2022-11-30T06:01:59;7.50;99.90
20366;DHT22;10341;49.894;8.822;2022-11-30T06:07:18;7.50;99.90
20366;DHT22;10341;49.894;8.822;2022-11-30T06:12:37;7.50;99.90
20366;DHT22;10341;49.894;8.822;2022-11-30T06:17:56;7.50;99.90
20366;DHT22;10341;49.894;8.822;2022-11-30T06:23:15;7.60;99.90
20366;DHT22;10341;49.894;8.822;2022-11-30T06:28:35;7.50;99.90
20366;DHT22;10341;49.894;8.822;2022-11-30T06:33:58;7.50;99.90
20366;DHT22;10341;49.894;8.822;2022-11-30T06:39:17;7.50;99.90
20366;DHT22;10341;49.894;8.822;2022-11-30T06:44:36;7.50;99.90
20366;DHT22;10341;49.894;8.822;2022-11-30T06:49:56;7.50;99.90
20366;DHT22;10341;49.894;8.822;2022-11-30T06:55:16;7.50;99.90
20366;DHT22;10341;49.894;8.822;2022-11-30T07:00:36;7.50;99.90
20366;DHT22;10341;49.894;8.822;2022-11-30T07:05:56;7.50;99.90
20366;DHT22;10341;49.894;8.822;2022-11-30T07:11:16;7.50;99.90
20366;DHT22;10341;49.894;8.822;2022-11-30T07:16:36;7.50;99.90
20366;DHT22;10341;49.894;8.822;2022-11-30T07:21:56;7.50;99.90
20366;DHT22;10341;49.894;8.822;2022-11-30T07:27:15;7.60;99.90
20366;DHT22;10341;49.894;8.822;2022-11-30T07:32:35;7.60;99.90
20366;DHT22;10341;49.894;8.822;2022-11-30T07:37:54;7.50;99.90
20366;DHT22;10341;49.894;8.822;2022-11-30T07:43:13;7.60;99.90
20366;DHT22;10341;49.894;8.822;2022-11-30T07:48:33;7.60;99.90
20366;DHT22;10341;49.894;8.822;2022-11-30T07:53:57;7.60;99.90
20366;DHT22;10341;49.894;8.822;2022-11-30T07:59:17;7.60;99.90
20366;DHT22;10341;49.894;8.822;2022-11-30T08:04:36;7.70;99.90
20366;DHT22;10341;49.894;8.822;2022-11-30T08:09:55;7.70;99.90
20366;DHT22;10341;49.894;8.822;2022-11-30T08:15:15;7.70;99.90
20366;DHT22;10341;49.894;8.822;2022-11-30T08:20:35;7.70;99.90
20366;DHT22;10341;49.894;8.822;2022-11-30T08:25:54;7.80;99.90
20366;DHT22;10341;49.894;8.822;2022-11-30T08:31:17;7.90;99.90
20366;DHT22;10341;49.894;8.822;2022-11-30T08:36:37;7.90;99.90
20366;DHT22;10341;49.894;8.822;2022-11-30T08:41:57;7.90;99.90
20366;DHT22;10341;49.894;8.822;2022-11-30T08:47:16;7.80;99.90
20366;DHT22;10341;49.894;8.822;2022-11-30T08:52:36;7.90;99.90
20366;DHT22;10341;49.894;8.822;2022-11-30T08:57:56;7.90;99.90
20366;DHT22;10341;49.894;8.822;2022-11-30T09:03:15;7.90;99.90
20366;DHT22;10341;49.894;8.822;2022-11-30T09:08:34;7.80;99.90
20366;DHT22;10341;49.894;8.822;2022-11-30T09:13:57;7.70;99.90
20366;DHT22;10341;49.894;8.822;2022-11-30T09:19:16;7.70;99.90
20366;DHT22;10341;49.894;8.822;2022-11-30T09:24:36;7.80;99.90
20366;DHT22;10341;49.894;8.822;2022-11-30T09:29:56;7.90;99.90
20366;DHT22;10341;49.894;8.822;2022-11-30T09:35:16;7.90;99.90
20366;DHT22;10341;49.894;8.822;2022-11-30T09:40:37;7.90;99.90
20366;DHT22;10341;49.894;8.822;2022-11-30T09:46:01;7.80;99.90
20366;DHT22;10341;49.894;8.822;2022-11-30T09:51:39;7.80;99.90
20366;DHT22;10341;49.894;8.822;2022-11-30T09:57:27;7.80;99.90
20366;DHT22;10341;49.894;8.822;2022-11-30T10:02:52;7.90;99.90
20366;DHT22;10341;49.894;8.822;2022-11-30T10:13:59;8.00;99.90
20366;DHT22;10341;49.894;8.822;2022-11-30T10:19:27;8.10;99.90
20366;DHT22;10341;49.894;8.822;2022-11-30T10:30:35;8.30;99.90
20366;DHT22;10341;49.894;8.822;2022-11-30T10:35:57;8.40;99.90
20366;DHT22;10341;49.894;8.822;2022-11-30T10:41:31;8.50;99.90
20366;DHT22;10341;49.894;8.822;2022-11-30T10:47:02;8.60;99.90
20366;DHT22;10341;49.894;8.822;2022-11-30T10:52:28;8.70;99.90
20366;DHT22;10341;49.894;8.822;2022-11-30T10:57:53;8.80;99.90
20366;DHT22;10341;49.894;8.822;2022-11-30T11:03:25;8.90;99.90
20366;DHT22;10341;49.894;8.822;2022-11-30T11:08:44;9.00;99.90
20366;DHT22;10341;49.894;8.822;2022-11-30T11:14:15;9.20;99.90
20366;DHT22;10341;49.894;8.822;2022-11-30T11:19:41;9.30;99.90
20366;DHT22;10341;49.894;8.822;2022-11-30T11:25:20;9.70;99.90
20366;DHT22;10341;49.894;8.822;2022-11-30T11:30:40;10.10;99.90
20366;DHT22;10341;49.894;8.822;2022-11-30T11:41:28;10.30;99.90
20366;DHT22;10341;49.894;8.822;2022-11-30T11:47:00;10.50;99.90
20366;DHT22;10341;49.894;8.822;2022-11-30T11:52:20;10.70;99.90
20366;DHT22;10341;49.894;8.822;2022-11-30T11:57:47;10.80;99.90
20366;DHT22;10341;49.894;8.822;2022-11-30T12:03:27;10.80;99.90
20366;DHT22;10341;49.894;8.822;2022-11-30T12:09:05;10.60;99.90
20366;DHT22;10341;49.894;8.822;2022-11-30T12:14:25;10.70;99.90
20366;DHT22;10341;49.894;8.822;2022-11-30T12:19:52;10.80;99.90
20366;DHT22;10341;49.894;8.822;2022-11-30T12:25:28;10.90;99.90
20366;DHT22;10341;49.894;8.822;2022-11-30T12:31:16;10.80;99.90
20366;DHT22;10341;49.894;8.822;2022-11-30T12:37:15;10.80;99.90
20366;DHT22;10341;49.894;8.822;2022-11-30T12:42:47;10.90;99.90
20366;DHT22;10341;49.894;8.822;2022-11-30T12:59:50;10.80;99.90
20366;DHT22;10341;49.894;8.822;2022-11-30T13:05:18;10.40;99.90
20366;DHT22;10341;49.894;8.822;2022-11-30T13:10:44;10.20;99.90
20366;DHT22;10341;49.894;8.822;2022-11-30T13:16:06;10.10;99.90
20366;DHT22;10341;49.894;8.822;2022-11-30T13:21:36;10.00;99.90
20366;DHT22;10341;49.894;8.822;2022-11-30T13:27:04;10.00;99.90
20366;DHT22;10341;49.894;8.822;2022-11-30T13:32:25;9.90;99.90
20366;DHT22;10341;49.894;8.822;2022-11-30T13:37:44;9.80;99.90
20366;DHT22;10341;49.894;8.822;2022-11-30T13:43:04;9.70;99.90
20366;DHT22;10341;49.894;8.822;2022-11-30T13:48:36;9.60;99.90
20366;DHT22;10341;49.894;8.822;2022-11-30T13:59:55;9.20;99.90
20366;DHT22;10341;49.894;8.822;2022-11-30T14:10:40;9.10;99.90
20366;DHT22;10341;49.894;8.822;2022-11-30T14:16:01;9.00;99.90
20366;DHT22;10341;49.894;8.822;2022-11-30T14:21:33;9.00;99.90
20366;DHT22;10341;49.894;8.822;2022-11-30T14:26:53;8.90;99.90
20366;DHT22;10341;49.894;8.822;2022-11-30T14:32:41;8.90;99.90
20366;DHT22;10341;49.894;8.822;2022-11-30T14:38:00;8.80;99.90
20366;DHT22;10341;49.894;8.822;2022-11-30T14:43:21;8.70;99.90
20366;DHT22;10341;49.894;8.822;2022-11-30T14:48:40;8.70;99.90
20366;DHT22;10341;49.894;8.822;2022-11-30T14:54:14;8.70;99.90
20366;DHT22;10341;49.894;8.822;2022-11-30T14:59:47;8.60;99.90
20366;DHT22;10341;49.894;8.822;2022-11-30T15:05:13;8.60;99.90
20366;DHT22;10341;49.894;8.822;2022-11-30T15:10:32;8.60;99.90
20366;DHT22;10341;49.894;8.822;2022-11-30T15:15:53;8.60;99.90
20366;DHT22;10341;49.894;8.822;2022-11-30T15:21:22;8.50;99.90
20366;DHT22;10341;49.894;8.822;2022-11-30T15:27:04;8.50;99.90
20366;DHT22;10341;49.894;8.822;2022-11-30T15:32:25;8.50;99.90
20366;DHT22;10341;49.894;8.822;2022-11-30T15:37:45;8.40;99.90
20366;DHT22;10341;49.894;8.822;2022-11-30T15:43:04;8.40;99.90
20366;DHT22;10341;49.894;8.822;2022-11-30T15:48:37;8.40;99.90
20366;DHT22;10341;49.894;8.822;2022-11-30T15:53:57;8.30;99.90
20366;DHT22;10341;49.894;8.822;2022-11-30T15:59:22;8.30;99.90
20366;DHT22;10341;49.894;8.822;2022-11-30T16:10:34;8.00;99.90
20366;DHT22;10341;49.894;8.822;2022-11-30T16:15:54;8.00;99.90
20366;DHT22;10341;49.894;8.822;2022-11-30T16:21:16;7.90;99.90
20366;DHT22;10341;49.894;8.822;2022-11-30T16:26:35;8.00;99.90
20366;DHT22;10341;49.894;8.822;2022-11-30T16:31:55;7.90;99.90
20366;DHT22;10341;49.894;8.822;2022-11-30T16:37:13;7.90;99.90
20366;DHT22;10341;49.894;8.822;2022-11-30T16:42:33;7.80;99.90
20366;DHT22;10341;49.894;8.822;2022-11-30T16:47:51;7.80;99.90
20366;DHT22;10341;49.894;8.822;2022-11-30T16:53:12;7.80;99.90
20366;DHT22;10341;49.894;8.822;2022-11-30T16:58:35;7.80;99.90
20366;DHT22;10341;49.894;8.822;2022-11-30T17:03:55;7.80;99.90
20366;DHT22;10341;49.894;8.822;2022-11-30T17:09:15;7.80;99.90
20366;DHT22;10341;49.894;8.822;2022-11-30T17:14:34;7.80;99.90
20366;DHT22;10341;49.894;8.822;2022-11-30T17:19:53;7.70;99.90
20366;DHT22;10341;49.894;8.822;2022-11-30T17:25:15;7.70;99.90
20366;DHT22;10341;49.894;8.822;2022-11-30T17:30:36;7.70;99.90
20366;DHT22;10341;49.894;8.822;2022-11-30T17:35:56;7.60;99.90
20366;DHT22;10341;49.894;8.822;2022-11-30T17:41:17;7.60;99.90
20366;DHT22;10341;49.894;8.822;2022-11-30T17:46:37;7.50;99.90
20366;DHT22;10341;49.894;8.822;2022-11-30T17:51:57;7.50;99.90
20366;DHT22;10341;49.894;8.822;2022-11-30T17:57:16;7.50;99.90
20366;DHT22;10341;49.894;8.822;2022-11-30T18:02:36;7.50;99.90
20366;DHT22;10341;49.894;8.822;2022-11-30T18:07:55;7.50;99.90
20366;DHT22;10341;49.894;8.822;2022-11-30T18:13:14;7.50;99.90
20366;DHT22;10341;49.894;8.822;2022-11-30T18:18:33;7.40;99.90
20366;DHT22;10341;49.894;8.822;2022-11-30T18:23:53;7.40;99.90
20366;DHT22;10341;49.894;8.822;2022-11-30T18:29:12;7.40;99.90
20366;DHT22;10341;49.894;8.822;2022-11-30T18:34:32;7.40;99.90
20366;DHT22;10341;49.894;8.822;2022-11-30T18:39:51;7.30;99.90
20366;DHT22;10341;49.894;8.822;2022-11-30T18:45:10;7.40;99.90
20366;DHT22;10341;49.894;8.822;2022-11-30T18:50:30;7.30;99.90
20366;DHT22;10341;49.894;8.822;2022-11-30T18:55:50;7.40;99.90
20366;DHT22;10341;49.894;8.822;2022-11-30T19:01:17;7.30;99.90
20366;DHT22;10341;49.894;8.822;2022-11-30T19:06:38;7.30;99.90
20366;DHT22;10341;49.894;8.822;2022-11-30T19:11:57;7.20;99.90
20366;DHT22;10341;49.894;8.822;2022-11-30T19:17:18;7.20;99.90
20366;DHT22;10341;49.894;8.822;2022-11-30T19:22:37;7.20;99.90
20366;DHT22;10341;49.894;8.822;2022-11-30T19:27:56;7.10;99.90
20366;DHT22;10341;49.894;8.822;2022-11-30T19:33:15;7.10;99.90
20366;DHT22;10341;49.894;8.822;2022-11-30T19:38:35;7.20;99.90
20366;DHT22;10341;49.894;8.822;2022-11-30T19:43:59;7.20;99.90
20366;DHT22;10341;49.894;8.822;2022-11-30T19:49:22;7.20;99.90
20366;DHT22;10341;49.894;8.822;2022-11-30T19:54:41;7.20;99.90
20366;DHT22;10341;49.894;8.822;2022-11-30T20:00:00;7.20;99.90
20366;DHT22;10341;49.894;8.822;2022-11-30T20:05:31;7.20;99.90
20366;DHT22;10341;49.894;8.822;2022-11-30T20:10:51;7.20;99.90
20366;DHT22;10341;49.894;8.822;2022-11-30T20:16:12;7.20;99.90
20366;DHT22;10341;49.894;8.822;2022-11-30T20:21:33;7.20;99.90
20366;DHT22;10341;49.894;8.822;2022-11-30T20:26:52;7.20;99.90
20366;DHT22;10341;49.894;8.822;2022-11-30T20:32:12;7.20;99.90
20366;DHT22;10341;49.894;8.822;2022-11-30T20:37:31;7.20;99.90
20366;DHT22;10341;49.894;8.822;2022-11-30T20:42:50;7.20;99.90
20366;DHT22;10341;49.894;8.822;2022-11-30T20:48:10;7.10;99.90
20366;DHT22;10341;49.894;8.822;2022-11-30T20:53:29;7.10;99.90
20366;DHT22;10341;49.894;8.822;2022-11-30T20:58:48;7.10;99.90
20366;DHT22;10341;49.894;8.822;2022-11-30T21:04:07;7.10;99.90
20366;DHT22;10341;49.894;8.822;2022-11-30T21:09:27;7.10;99.90
20366;DHT22;10341;49.894;8.822;2022-11-30T21:14:46;7.00;99.90
20366;DHT22;10341;49.894;8.822;2022-11-30T21:20:05;7.00;99.90
20366;DHT22;10341;49.894;8.822;2022-11-30T21:25:25;6.90;99.90
20366;DHT22;10341;49.894;8.822;2022-11-30T21:30:45;6.90;99.90
20366;DHT22;10341;49.894;8.822;2022-11-30T21:36:09;6.80;99.90
20366;DHT22;10341;49.894;8.822;2022-11-30T21:41:29;6.80;99.90
20366;DHT22;10341;49.894;8.822;2022-11-30T21:46:48;6.80;99.90
20366;DHT22;10341;49.894;8.822;2022-11-30T21:52:09;6.80;99.90
20366;DHT22;10341;49.894;8.822;2022-11-30T21:57:28;6.70;99.90
20366;DHT22;10341;49.894;8.822;2022-11-30T22:02:47;6.40;99.90
20366;DHT22;10341;49.894;8.822;2022-11-30T22:08:06;6.10;99.90
20366;DHT22;10341;49.894;8.822;2022-11-30T22:13:25;5.80;99.90
20366;DHT22;10341;49.894;8.822;2022-11-30T22:18:45;5.60;99.90
20366;DHT22;10341;49.894;8.822;2022-11-30T22:24:08;5.50;99.90
20366;DHT22;10341;49.894;8.822;2022-11-30T22:29:28;5.40;99.90
20366;DHT22;10341;49.894;8.822;2022-11-30T22:34:47;5.40;99.90
20366;DHT22;10341;49.894;8.822;2022-11-30T22:40:07;5.30;99.90
20366;DHT22;10341;49.894;8.822;2022-11-30T22:45:27;5.30;99.90
20366;DHT22;10341;49.894;8.822;2022-11-30T22:50:47;5.30;99.90
20366;DHT22;10341;49.894;8.822;2022-11-30T22:56:12;5.30;99.90
20366;DHT22;10341;49.894;8.822;2022-11-30T23:01:38;5.30;99.90
20366;DHT22;10341;49.894;8.822;2022-11-30T23:06:57;5.30;99.90
20366;DHT22;10341;49.894;8.822;2022-11-30T23:12:17;5.30;99.90
20366;DHT22;10341;49.894;8.822;2022-11-30T23:17:36;5.30;99.90
20366;DHT22;10341;49.894;8.822;2022-11-30T23:22:55;5.40;99.90
20366;DHT22;10341;49.894;8.822;2022-11-30T23:28:15;5.40;99.90
20366;DHT22;10341;49.894;8.822;2022-11-30T23:33:34;5.40;99.90
20366;DHT22;10341;49.894;8.822;2022-11-30T23:39:06;5.30;99.90
20366;DHT22;10341;49.894;8.822;2022-11-30T23:44:25;5.30;99.90
20366;DHT22;10341;49.894;8.822;2022-11-30T23:49:44;5.30;99.90
20366;DHT22;10341;49.894;8.822;2022-11-30T23:55:04;5.30;99.90
